sensor_id;sensor_type;location;lat;lon;timestamp;P1;durP1;ratioP1;P2;durP2;ratioP2
74074;SDS011;62428;51.412;5.432;2023-02-11T00:00:19;18.20;;;7.20;;
74074;SDS011;62428;51.412;5.432;2023-02-11T00:02:45;23.17;;;7.68;;
74074;SDS011;62428;51.412;5.432;2023-02-11T00:05:10;15.90;;;6.77;;
74074;SDS011;62428;51.412;5.432;2023-02-11T00:07:35;21.67;;;7.40;;
74074;SDS011;62428;51.412;5.432;2023-02-11T00:10:02;16.43;;;7.77;;
74074;SDS011;62428;51.412;5.432;2023-02-11T00:12:28;19.42;;;7.82;;
74074;SDS011;62428;51.412;5.432;2023-02-11T00:14:53;23.47;;;7.50;;
74074;SDS011;62428;51.412;5.432;2023-02-11T00:17:19;19.98;;;7.05;;
74074;SDS011;62428;51.412;5.432;2023-02-11T00:19:48;24.50;;;7.60;;
74074;SDS011;62428;51.412;5.432;2023-02-11T00:22:13;18.70;;;6.53;;
74074;SDS011;62428;51.412;5.432;2023-02-11T00:24:39;20.50;;;6.93;;
74074;SDS011;62428;51.412;5.432;2023-02-11T00:27:04;29.17;;;7.50;;
74074;SDS011;62428;51.412;5.432;2023-02-11T00:29:29;13.97;;;4.10;;
74074;SDS011;62428;51.412;5.432;2023-02-11T00:31:55;14.93;;;6.13;;
74074;SDS011;62428;51.412;5.432;2023-02-11T00:34:20;19.52;;;6.32;;
74074;SDS011;62428;51.412;5.432;2023-02-11T00:36:45;24.50;;;6.45;;
74074;SDS011;62428;51.412;5.432;2023-02-11T00:39:11;17.07;;;5.67;;
74074;SDS011;62428;51.412;5.432;2023-02-11T00:41:36;21.90;;;6.03;;
74074;SDS011;62428;51.412;5.432;2023-02-11T00:44:01;16.57;;;6.53;;
74074;SDS011;62428;51.412;5.432;2023-02-11T00:46:27;18.70;;;6.30;;
74074;SDS011;62428;51.412;5.432;2023-02-11T00:48:52;20.73;;;6.63;;
74074;SDS011;62428;51.412;5.432;2023-02-11T00:51:21;21.20;;;6.53;;
74074;SDS011;62428;51.412;5.432;2023-02-11T00:53:51;13.90;;;5.73;;
74074;SDS011;62428;51.412;5.432;2023-02-11T00:56:17;15.57;;;6.15;;
74074;SDS011;62428;51.412;5.432;2023-02-11T00:58:43;16.73;;;6.47;;
74074;SDS011;62428;51.412;5.432;2023-02-11T01:01:08;18.27;;;6.40;;
74074;SDS011;62428;51.412;5.432;2023-02-11T01:03:34;16.43;;;6.37;;
74074;SDS011;62428;51.412;5.432;2023-02-11T01:05:59;10.57;;;4.83;;
74074;SDS011;62428;51.412;5.432;2023-02-11T01:08:25;22.07;;;6.60;;
74074;SDS011;62428;51.412;5.432;2023-02-11T01:11:00;18.58;;;5.65;;
74074;SDS011;62428;51.412;5.432;2023-02-11T01:13:28;17.08;;;5.05;;
74074;SDS011;62428;51.412;5.432;2023-02-11T01:15:55;16.45;;;6.00;;
74074;SDS011;62428;51.412;5.432;2023-02-11T01:18:21;19.43;;;5.90;;
74074;SDS011;62428;51.412;5.432;2023-02-11T01:20:47;17.48;;;5.72;;
74074;SDS011;62428;51.412;5.432;2023-02-11T01:23:12;19.27;;;6.37;;
74074;SDS011;62428;51.412;5.432;2023-02-11T01:25:38;22.88;;;6.50;;
74074;SDS011;62428;51.412;5.432;2023-02-11T01:28:03;14.63;;;5.33;;
74074;SDS011;62428;51.412;5.432;2023-02-11T01:30:29;19.53;;;5.67;;
74074;SDS011;62428;51.412;5.432;2023-02-11T01:32:54;17.17;;;5.27;;
74074;SDS011;62428;51.412;5.432;2023-02-11T01:35:20;17.00;;;5.43;;
74074;SDS011;62428;51.412;5.432;2023-02-11T01:37:45;20.30;;;5.87;;
74074;SDS011;62428;51.412;5.432;2023-02-11T01:40:12;23.17;;;5.50;;
74074;SDS011;62428;51.412;5.432;2023-02-11T01:42:41;17.17;;;5.93;;
74074;SDS011;62428;51.412;5.432;2023-02-11T01:48:11;23.30;;;6.22;;
74074;SDS011;62428;51.412;5.432;2023-02-11T01:50:40;13.55;;;5.05;;
74074;SDS011;62428;51.412;5.432;2023-02-11T01:53:06;14.25;;;5.35;;
74074;SDS011;62428;51.412;5.432;2023-02-11T01:55:51;27.17;;;6.00;;
74074;SDS011;62428;51.412;5.432;2023-02-11T01:58:37;17.10;;;5.20;;
74074;SDS011;62428;51.412;5.432;2023-02-11T02:01:05;16.85;;;5.30;;
74074;SDS011;62428;51.412;5.432;2023-02-11T02:03:32;13.77;;;5.50;;
74074;SDS011;62428;51.412;5.432;2023-02-11T02:08:54;13.30;;;4.37;;
74074;SDS011;62428;51.412;5.432;2023-02-11T02:11:25;14.70;;;4.88;;
74074;SDS011;62428;51.412;5.432;2023-02-11T02:13:50;16.47;;;4.67;;
74074;SDS011;62428;51.412;5.432;2023-02-11T02:16:16;14.03;;;4.90;;
74074;SDS011;62428;51.412;5.432;2023-02-11T02:24:36;14.90;;;4.63;;
74074;SDS011;62428;51.412;5.432;2023-02-11T02:35:03;17.67;;;4.82;;
74074;SDS011;62428;51.412;5.432;2023-02-11T02:37:46;15.35;;;4.53;;
74074;SDS011;62428;51.412;5.432;2023-02-11T02:40:19;11.88;;;4.53;;
74074;SDS011;62428;51.412;5.432;2023-02-11T02:42:49;17.58;;;4.65;;
74074;SDS011;62428;51.412;5.432;2023-02-11T02:45:17;27.23;;;5.23;;
74074;SDS011;62428;51.412;5.432;2023-02-11T02:47:43;13.88;;;4.40;;
74074;SDS011;62428;51.412;5.432;2023-02-11T02:50:08;13.50;;;5.07;;
74074;SDS011;62428;51.412;5.432;2023-02-11T02:55:17;12.43;;;4.78;;
74074;SDS011;62428;51.412;5.432;2023-02-11T02:57:55;10.85;;;3.97;;
74074;SDS011;62428;51.412;5.432;2023-02-11T03:00:56;13.82;;;4.60;;
74074;SDS011;62428;51.412;5.432;2023-02-11T03:08:33;16.90;;;4.57;;
74074;SDS011;62428;51.412;5.432;2023-02-11T03:11:04;17.15;;;4.13;;
74074;SDS011;62428;51.412;5.432;2023-02-11T03:13:31;11.70;;;4.22;;
74074;SDS011;62428;51.412;5.432;2023-02-11T03:16:01;17.67;;;4.93;;
74074;SDS011;62428;51.412;5.432;2023-02-11T03:18:43;17.98;;;4.18;;
74074;SDS011;62428;51.412;5.432;2023-02-11T03:21:13;18.42;;;4.32;;
74074;SDS011;62428;51.412;5.432;2023-02-11T03:23:49;8.40;;;4.00;;
74074;SDS011;62428;51.412;5.432;2023-02-11T03:31:35;13.52;;;4.38;;
74074;SDS011;62428;51.412;5.432;2023-02-11T03:34:08;16.08;;;4.53;;
74074;SDS011;62428;51.412;5.432;2023-02-11T03:36:44;15.23;;;4.63;;
74074;SDS011;62428;51.412;5.432;2023-02-11T03:39:17;9.35;;;4.22;;
74074;SDS011;62428;51.412;5.432;2023-02-11T03:41:47;20.93;;;4.87;;
74074;SDS011;62428;51.412;5.432;2023-02-11T03:44:14;11.52;;;4.05;;
74074;SDS011;62428;51.412;5.432;2023-02-11T03:46:42;12.27;;;4.63;;
74074;SDS011;62428;51.412;5.432;2023-02-11T03:49:12;11.07;;;3.88;;
74074;SDS011;62428;51.412;5.432;2023-02-11T03:51:39;17.60;;;4.95;;
74074;SDS011;62428;51.412;5.432;2023-02-11T03:54:08;14.30;;;4.70;;
74074;SDS011;62428;51.412;5.432;2023-02-11T03:56:40;11.50;;;4.45;;
74074;SDS011;62428;51.412;5.432;2023-02-11T03:59:12;25.17;;;5.25;;
74074;SDS011;62428;51.412;5.432;2023-02-11T04:01:41;16.33;;;4.30;;
74074;SDS011;62428;51.412;5.432;2023-02-11T04:04:06;11.60;;;4.10;;
74074;SDS011;62428;51.412;5.432;2023-02-11T04:06:31;17.83;;;4.30;;
74074;SDS011;62428;51.412;5.432;2023-02-11T04:08:57;14.30;;;4.53;;
74074;SDS011;62428;51.412;5.432;2023-02-11T04:11:22;24.03;;;5.07;;
74074;SDS011;62428;51.412;5.432;2023-02-11T04:13:47;19.10;;;4.40;;
74074;SDS011;62428;51.412;5.432;2023-02-11T04:16:13;13.27;;;4.60;;
74074;SDS011;62428;51.412;5.432;2023-02-11T04:18:38;12.35;;;4.72;;
74074;SDS011;62428;51.412;5.432;2023-02-11T04:21:03;11.10;;;4.97;;
74074;SDS011;62428;51.412;5.432;2023-02-11T04:23:29;13.07;;;4.30;;
74074;SDS011;62428;51.412;5.432;2023-02-11T04:25:54;16.80;;;5.10;;
74074;SDS011;62428;51.412;5.432;2023-02-11T04:28:20;15.17;;;4.87;;
74074;SDS011;62428;51.412;5.432;2023-02-11T04:30:45;20.00;;;4.87;;
74074;SDS011;62428;51.412;5.432;2023-02-11T04:33:10;16.07;;;4.90;;
74074;SDS011;62428;51.412;5.432;2023-02-11T04:35:36;12.73;;;5.05;;
74074;SDS011;62428;51.412;5.432;2023-02-11T04:38:01;14.40;;;5.10;;
74074;SDS011;62428;51.412;5.432;2023-02-11T04:40:26;19.37;;;5.17;;
74074;SDS011;62428;51.412;5.432;2023-02-11T04:42:51;10.97;;;4.60;;
74074;SDS011;62428;51.412;5.432;2023-02-11T04:45:17;27.17;;;5.57;;
74074;SDS011;62428;51.412;5.432;2023-02-11T04:47:42;14.60;;;5.10;;
74074;SDS011;62428;51.412;5.432;2023-02-11T04:50:07;17.60;;;5.00;;
74074;SDS011;62428;51.412;5.432;2023-02-11T04:52:33;18.83;;;5.73;;
74074;SDS011;62428;51.412;5.432;2023-02-11T04:54:58;16.87;;;5.13;;
74074;SDS011;62428;51.412;5.432;2023-02-11T04:57:23;14.43;;;4.95;;
74074;SDS011;62428;51.412;5.432;2023-02-11T04:59:49;15.10;;;4.57;;
74074;SDS011;62428;51.412;5.432;2023-02-11T05:02:14;17.03;;;5.90;;
74074;SDS011;62428;51.412;5.432;2023-02-11T05:04:39;13.97;;;5.77;;
74074;SDS011;62428;51.412;5.432;2023-02-11T05:07:05;12.37;;;4.10;;
74074;SDS011;62428;51.412;5.432;2023-02-11T05:09:30;14.27;;;4.30;;
74074;SDS011;62428;51.412;5.432;2023-02-11T05:11:55;24.67;;;5.47;;
74074;SDS011;62428;51.412;5.432;2023-02-11T05:14:21;17.53;;;6.13;;
74074;SDS011;62428;51.412;5.432;2023-02-11T05:16:46;18.95;;;5.50;;
74074;SDS011;62428;51.412;5.432;2023-02-11T05:19:11;19.87;;;5.83;;
74074;SDS011;62428;51.412;5.432;2023-02-11T05:21:37;13.43;;;5.83;;
74074;SDS011;62428;51.412;5.432;2023-02-11T05:24:02;16.67;;;5.90;;
74074;SDS011;62428;51.412;5.432;2023-02-11T05:26:28;16.17;;;5.93;;
74074;SDS011;62428;51.412;5.432;2023-02-11T05:28:53;19.33;;;6.00;;
74074;SDS011;62428;51.412;5.432;2023-02-11T05:31:18;17.77;;;6.38;;
74074;SDS011;62428;51.412;5.432;2023-02-11T05:33:44;21.97;;;6.00;;
74074;SDS011;62428;51.412;5.432;2023-02-11T05:36:10;24.20;;;6.20;;
74074;SDS011;62428;51.412;5.432;2023-02-11T05:38:37;19.58;;;5.93;;
74074;SDS011;62428;51.412;5.432;2023-02-11T05:41:03;14.47;;;5.70;;
74074;SDS011;62428;51.412;5.432;2023-02-11T05:43:29;24.55;;;6.47;;
74074;SDS011;62428;51.412;5.432;2023-02-11T05:45:55;20.35;;;6.97;;
74074;SDS011;62428;51.412;5.432;2023-02-11T05:48:21;29.20;;;7.43;;
74074;SDS011;62428;51.412;5.432;2023-02-11T05:50:46;22.57;;;6.57;;
74074;SDS011;62428;51.412;5.432;2023-02-11T05:53:11;20.87;;;7.20;;
74074;SDS011;62428;51.412;5.432;2023-02-11T05:55:37;20.60;;;6.83;;
74074;SDS011;62428;51.412;5.432;2023-02-11T05:58:02;19.35;;;6.88;;
74074;SDS011;62428;51.412;5.432;2023-02-11T06:00:28;19.03;;;7.10;;
74074;SDS011;62428;51.412;5.432;2023-02-11T06:02:53;25.33;;;7.33;;
74074;SDS011;62428;51.412;5.432;2023-02-11T06:05:18;23.50;;;7.17;;
74074;SDS011;62428;51.412;5.432;2023-02-11T06:07:44;25.30;;;7.83;;
74074;SDS011;62428;51.412;5.432;2023-02-11T06:10:09;18.63;;;7.47;;
74074;SDS011;62428;51.412;5.432;2023-02-11T06:12:35;23.33;;;8.33;;
74074;SDS011;62428;51.412;5.432;2023-02-11T06:15:01;20.10;;;7.35;;
74074;SDS011;62428;51.412;5.432;2023-02-11T06:17:27;20.43;;;8.03;;
74074;SDS011;62428;51.412;5.432;2023-02-11T06:19:56;20.60;;;7.75;;
74074;SDS011;62428;51.412;5.432;2023-02-11T06:22:22;23.60;;;8.87;;
74074;SDS011;62428;51.412;5.432;2023-02-11T06:24:47;17.33;;;6.87;;
74074;SDS011;62428;51.412;5.432;2023-02-11T06:27:12;18.75;;;7.03;;
74074;SDS011;62428;51.412;5.432;2023-02-11T06:29:38;23.20;;;8.38;;
74074;SDS011;62428;51.412;5.432;2023-02-11T06:32:03;26.27;;;8.43;;
74074;SDS011;62428;51.412;5.432;2023-02-11T06:34:28;25.77;;;8.77;;
74074;SDS011;62428;51.412;5.432;2023-02-11T06:36:54;31.30;;;8.80;;
74074;SDS011;62428;51.412;5.432;2023-02-11T06:39:19;22.73;;;8.27;;
74074;SDS011;62428;51.412;5.432;2023-02-11T06:41:44;31.93;;;10.03;;
74074;SDS011;62428;51.412;5.432;2023-02-11T06:44:10;28.00;;;9.20;;
74074;SDS011;62428;51.412;5.432;2023-02-11T06:46:35;21.92;;;8.65;;
74074;SDS011;62428;51.412;5.432;2023-02-11T06:49:00;24.77;;;8.50;;
74074;SDS011;62428;51.412;5.432;2023-02-11T06:51:26;25.07;;;9.13;;
74074;SDS011;62428;51.412;5.432;2023-02-11T06:53:52;28.40;;;8.87;;
74074;SDS011;62428;51.412;5.432;2023-02-11T06:56:19;28.15;;;10.45;;
74074;SDS011;62428;51.412;5.432;2023-02-11T06:58:45;27.15;;;9.80;;
74074;SDS011;62428;51.412;5.432;2023-02-11T07:01:12;31.13;;;10.75;;
74074;SDS011;62428;51.412;5.432;2023-02-11T07:03:40;29.52;;;9.90;;
74074;SDS011;62428;51.412;5.432;2023-02-11T07:06:07;30.87;;;10.77;;
74074;SDS011;62428;51.412;5.432;2023-02-11T07:08:35;39.03;;;11.77;;
74074;SDS011;62428;51.412;5.432;2023-02-11T07:11:18;35.85;;;11.40;;
74074;SDS011;62428;51.412;5.432;2023-02-11T07:13:49;35.25;;;11.57;;
74074;SDS011;62428;51.412;5.432;2023-02-11T07:16:15;30.50;;;11.50;;
74074;SDS011;62428;51.412;5.432;2023-02-11T07:18:42;38.07;;;12.30;;
74074;SDS011;62428;51.412;5.432;2023-02-11T07:21:09;37.05;;;12.25;;
74074;SDS011;62428;51.412;5.432;2023-02-11T07:23:36;46.35;;;14.43;;
74074;SDS011;62428;51.412;5.432;2023-02-11T07:26:02;40.23;;;12.67;;
74074;SDS011;62428;51.412;5.432;2023-02-11T07:28:28;42.38;;;14.15;;
74074;SDS011;62428;51.412;5.432;2023-02-11T07:30:53;40.13;;;13.33;;
74074;SDS011;62428;51.412;5.432;2023-02-11T07:33:19;45.63;;;13.43;;
74074;SDS011;62428;51.412;5.432;2023-02-11T07:35:44;36.60;;;13.53;;
74074;SDS011;62428;51.412;5.432;2023-02-11T07:38:09;49.40;;;14.38;;
74074;SDS011;62428;51.412;5.432;2023-02-11T07:40:35;44.17;;;13.70;;
74074;SDS011;62428;51.412;5.432;2023-02-11T07:43:00;46.20;;;14.70;;
74074;SDS011;62428;51.412;5.432;2023-02-11T07:45:26;52.38;;;15.45;;
74074;SDS011;62428;51.412;5.432;2023-02-11T07:47:52;40.80;;;13.47;;
74074;SDS011;62428;51.412;5.432;2023-02-11T07:50:18;47.50;;;15.80;;
74074;SDS011;62428;51.412;5.432;2023-02-11T07:52:43;44.77;;;13.37;;
74074;SDS011;62428;51.412;5.432;2023-02-11T07:55:08;51.40;;;16.33;;
74074;SDS011;62428;51.412;5.432;2023-02-11T07:57:34;54.93;;;16.17;;
74074;SDS011;62428;51.412;5.432;2023-02-11T08:00:00;54.53;;;16.85;;
74074;SDS011;62428;51.412;5.432;2023-02-11T08:02:26;46.50;;;16.50;;
74074;SDS011;62428;51.412;5.432;2023-02-11T08:04:51;45.40;;;15.63;;
74074;SDS011;62428;51.412;5.432;2023-02-11T08:07:17;56.40;;;15.57;;
74074;SDS011;62428;51.412;5.432;2023-02-11T08:09:42;57.92;;;17.08;;
74074;SDS011;62428;51.412;5.432;2023-02-11T08:12:08;54.60;;;16.63;;
74074;SDS011;62428;51.412;5.432;2023-02-11T08:14:34;55.47;;;16.40;;
74074;SDS011;62428;51.412;5.432;2023-02-11T08:16:59;59.87;;;18.20;;
74074;SDS011;62428;51.412;5.432;2023-02-11T08:19:24;55.97;;;17.80;;
74074;SDS011;62428;51.412;5.432;2023-02-11T08:21:51;56.43;;;17.57;;
74074;SDS011;62428;51.412;5.432;2023-02-11T08:24:20;64.68;;;17.60;;
74074;SDS011;62428;51.412;5.432;2023-02-11T08:26:45;58.70;;;18.17;;
74074;SDS011;62428;51.412;5.432;2023-02-11T08:29:11;49.35;;;16.33;;
74074;SDS011;62428;51.412;5.432;2023-02-11T08:31:39;62.05;;;17.83;;
74074;SDS011;62428;51.412;5.432;2023-02-11T08:34:06;60.25;;;18.55;;
74074;SDS011;62428;51.412;5.432;2023-02-11T08:36:32;57.67;;;18.33;;
74074;SDS011;62428;51.412;5.432;2023-02-11T08:39:00;55.72;;;18.27;;
74074;SDS011;62428;51.412;5.432;2023-02-11T08:41:29;62.03;;;18.95;;
74074;SDS011;62428;51.412;5.432;2023-02-11T08:43:55;64.43;;;18.95;;
74074;SDS011;62428;51.412;5.432;2023-02-11T08:46:21;61.53;;;18.63;;
74074;SDS011;62428;51.412;5.432;2023-02-11T08:48:46;65.23;;;18.93;;
74074;SDS011;62428;51.412;5.432;2023-02-11T08:51:14;56.85;;;17.40;;
74074;SDS011;62428;51.412;5.432;2023-02-11T08:53:51;61.73;;;18.17;;
74074;SDS011;62428;51.412;5.432;2023-02-11T08:56:18;56.10;;;20.08;;
74074;SDS011;62428;51.412;5.432;2023-02-11T08:58:44;60.85;;;19.55;;
74074;SDS011;62428;51.412;5.432;2023-02-11T09:03:37;63.65;;;19.85;;
74074;SDS011;62428;51.412;5.432;2023-02-11T09:06:03;67.60;;;21.30;;
74074;SDS011;62428;51.412;5.432;2023-02-11T09:08:30;60.90;;;19.58;;
74074;SDS011;62428;51.412;5.432;2023-02-11T09:10:58;69.15;;;19.23;;
74074;SDS011;62428;51.412;5.432;2023-02-11T09:13:24;62.40;;;19.93;;
74074;SDS011;62428;51.412;5.432;2023-02-11T09:15:49;67.80;;;19.17;;
74074;SDS011;62428;51.412;5.432;2023-02-11T09:18:14;70.40;;;20.50;;
74074;SDS011;62428;51.412;5.432;2023-02-11T09:20:40;66.00;;;19.27;;
74074;SDS011;62428;51.412;5.432;2023-02-11T09:23:05;66.45;;;18.27;;
74074;SDS011;62428;51.412;5.432;2023-02-11T09:25:31;71.63;;;21.37;;
74074;SDS011;62428;51.412;5.432;2023-02-11T09:27:56;67.87;;;20.30;;
74074;SDS011;62428;51.412;5.432;2023-02-11T09:30:21;59.77;;;19.17;;
74074;SDS011;62428;51.412;5.432;2023-02-11T09:32:46;75.13;;;23.07;;
74074;SDS011;62428;51.412;5.432;2023-02-11T09:35:12;71.53;;;20.93;;
74074;SDS011;62428;51.412;5.432;2023-02-11T09:37:37;70.75;;;21.15;;
74074;SDS011;62428;51.412;5.432;2023-02-11T09:40:03;67.30;;;20.03;;
74074;SDS011;62428;51.412;5.432;2023-02-11T09:42:39;73.57;;;20.97;;
74074;SDS011;62428;51.412;5.432;2023-02-11T09:45:20;75.65;;;21.30;;
74074;SDS011;62428;51.412;5.432;2023-02-11T09:48:04;68.00;;;21.65;;
74074;SDS011;62428;51.412;5.432;2023-02-11T09:50:39;67.43;;;21.83;;
74074;SDS011;62428;51.412;5.432;2023-02-11T09:55:40;69.15;;;21.63;;
74074;SDS011;62428;51.412;5.432;2023-02-11T09:58:12;73.82;;;21.52;;
74074;SDS011;62428;51.412;5.432;2023-02-11T10:00:40;66.68;;;20.77;;
74074;SDS011;62428;51.412;5.432;2023-02-11T10:11:31;78.25;;;21.88;;
74074;SDS011;62428;51.412;5.432;2023-02-11T10:17:10;65.55;;;20.27;;
74074;SDS011;62428;51.412;5.432;2023-02-11T10:22:24;64.10;;;21.15;;
74074;SDS011;62428;51.412;5.432;2023-02-11T10:24:56;78.53;;;24.30;;
74074;SDS011;62428;51.412;5.432;2023-02-11T10:27:26;76.15;;;22.52;;
74074;SDS011;62428;51.412;5.432;2023-02-11T10:30:03;73.68;;;23.08;;
74074;SDS011;62428;51.412;5.432;2023-02-11T10:32:38;73.47;;;22.57;;
74074;SDS011;62428;51.412;5.432;2023-02-11T10:35:13;71.88;;;22.50;;
74074;SDS011;62428;51.412;5.432;2023-02-11T10:37:41;75.35;;;23.15;;
74074;SDS011;62428;51.412;5.432;2023-02-11T10:40:17;75.70;;;24.73;;
74074;SDS011;62428;51.412;5.432;2023-02-11T10:42:47;67.68;;;22.60;;
74074;SDS011;62428;51.412;5.432;2023-02-11T10:45:35;69.13;;;21.42;;
74074;SDS011;62428;51.412;5.432;2023-02-11T10:48:03;64.75;;;22.70;;
74074;SDS011;62428;51.412;5.432;2023-02-11T10:50:31;75.85;;;21.88;;
74074;SDS011;62428;51.412;5.432;2023-02-11T10:53:18;70.70;;;21.73;;
74074;SDS011;62428;51.412;5.432;2023-02-11T10:56:03;83.35;;;23.88;;
74074;SDS011;62428;51.412;5.432;2023-02-11T10:58:33;69.75;;;23.35;;
74074;SDS011;62428;51.412;5.432;2023-02-11T11:01:04;75.32;;;22.98;;
74074;SDS011;62428;51.412;5.432;2023-02-11T11:03:33;82.82;;;25.98;;
74074;SDS011;62428;51.412;5.432;2023-02-11T11:06:08;70.13;;;23.90;;
74074;SDS011;62428;51.412;5.432;2023-02-11T11:08:38;66.10;;;22.13;;
74074;SDS011;62428;51.412;5.432;2023-02-11T11:11:08;64.50;;;23.00;;
74074;SDS011;62428;51.412;5.432;2023-02-11T11:16:21;78.15;;;24.02;;
74074;SDS011;62428;51.412;5.432;2023-02-11T11:18:49;71.87;;;23.93;;
74074;SDS011;62428;51.412;5.432;2023-02-11T11:21:23;70.63;;;23.10;;
74074;SDS011;62428;51.412;5.432;2023-02-11T11:23:55;67.03;;;22.80;;
74074;SDS011;62428;51.412;5.432;2023-02-11T11:26:23;78.00;;;24.92;;
74074;SDS011;62428;51.412;5.432;2023-02-11T11:29:00;76.65;;;24.58;;
74074;SDS011;62428;51.412;5.432;2023-02-11T11:31:32;65.13;;;22.90;;
74074;SDS011;62428;51.412;5.432;2023-02-11T11:34:02;71.20;;;23.73;;
74074;SDS011;62428;51.412;5.432;2023-02-11T11:36:44;66.53;;;21.30;;
74074;SDS011;62428;51.412;5.432;2023-02-11T11:41:51;68.75;;;22.92;;
74074;SDS011;62428;51.412;5.432;2023-02-11T11:49:41;73.67;;;23.27;;
74074;SDS011;62428;51.412;5.432;2023-02-11T11:52:17;63.78;;;22.42;;
74074;SDS011;62428;51.412;5.432;2023-02-11T11:54:58;62.90;;;21.55;;
74074;SDS011;62428;51.412;5.432;2023-02-11T11:57:46;78.10;;;23.67;;
74074;SDS011;62428;51.412;5.432;2023-02-11T12:00:19;63.13;;;23.00;;
74074;SDS011;62428;51.412;5.432;2023-02-11T12:03:17;76.27;;;24.10;;
74074;SDS011;62428;51.412;5.432;2023-02-11T12:11:19;75.55;;;24.45;;
74074;SDS011;62428;51.412;5.432;2023-02-11T12:25:34;70.72;;;23.98;;
74074;SDS011;62428;51.412;5.432;2023-02-11T12:36:01;77.63;;;23.52;;
74074;SDS011;62428;51.412;5.432;2023-02-11T12:44:24;82.53;;;25.63;;
74074;SDS011;62428;51.412;5.432;2023-02-11T12:46:59;68.78;;;23.02;;
74074;SDS011;62428;51.412;5.432;2023-02-11T12:50:23;62.70;;;19.98;;
74074;SDS011;62428;51.412;5.432;2023-02-11T12:53:26;81.65;;;25.00;;
74074;SDS011;62428;51.412;5.432;2023-02-11T12:55:52;76.75;;;24.80;;
74074;SDS011;62428;51.412;5.432;2023-02-11T12:58:23;78.50;;;25.40;;
74074;SDS011;62428;51.412;5.432;2023-02-11T13:00:53;76.43;;;24.45;;
74074;SDS011;62428;51.412;5.432;2023-02-11T13:03:43;74.20;;;24.75;;
74074;SDS011;62428;51.412;5.432;2023-02-11T13:06:14;73.68;;;25.58;;
74074;SDS011;62428;51.412;5.432;2023-02-11T13:08:54;80.03;;;24.77;;
74074;SDS011;62428;51.412;5.432;2023-02-11T13:11:25;85.80;;;26.58;;
74074;SDS011;62428;51.412;5.432;2023-02-11T13:14:15;71.38;;;25.25;;
74074;SDS011;62428;51.412;5.432;2023-02-11T13:16:51;81.95;;;26.77;;
74074;SDS011;62428;51.412;5.432;2023-02-11T13:19:21;68.15;;;24.40;;
74074;SDS011;62428;51.412;5.432;2023-02-11T13:28:24;77.72;;;25.88;;
74074;SDS011;62428;51.412;5.432;2023-02-11T13:30:51;75.15;;;24.90;;
74074;SDS011;62428;51.412;5.432;2023-02-11T13:33:29;71.82;;;25.38;;
74074;SDS011;62428;51.412;5.432;2023-02-11T13:38:28;73.30;;;24.90;;
74074;SDS011;62428;51.412;5.432;2023-02-11T13:41:16;69.93;;;24.47;;
74074;SDS011;62428;51.412;5.432;2023-02-11T13:44:02;69.20;;;23.45;;
74074;SDS011;62428;51.412;5.432;2023-02-11T13:49:26;63.58;;;24.13;;
74074;SDS011;62428;51.412;5.432;2023-02-11T13:51:55;66.25;;;22.60;;
74074;SDS011;62428;51.412;5.432;2023-02-11T13:54:56;70.00;;;23.38;;
74074;SDS011;62428;51.412;5.432;2023-02-11T13:59:45;71.32;;;25.17;;
74074;SDS011;62428;51.412;5.432;2023-02-11T14:02:21;65.40;;;23.20;;
74074;SDS011;62428;51.412;5.432;2023-02-11T15:37:45;55.65;;;22.90;;
74074;SDS011;62428;51.412;5.432;2023-02-11T15:40:15;58.37;;;22.93;;
74074;SDS011;62428;51.412;5.432;2023-02-11T15:47:56;56.88;;;21.27;;
74074;SDS011;62428;51.412;5.432;2023-02-11T15:50:27;59.97;;;22.77;;
74074;SDS011;62428;51.412;5.432;2023-02-11T15:52:55;55.25;;;21.95;;
74074;SDS011;62428;51.412;5.432;2023-02-11T15:55:23;84.57;;;22.65;;
74074;SDS011;62428;51.412;5.432;2023-02-11T15:57:56;55.22;;;20.83;;
74074;SDS011;62428;51.412;5.432;2023-02-11T16:00:31;56.60;;;22.25;;
74074;SDS011;62428;51.412;5.432;2023-02-11T16:03:00;59.08;;;21.25;;
74074;SDS011;62428;51.412;5.432;2023-02-11T16:05:33;65.65;;;23.77;;
74074;SDS011;62428;51.412;5.432;2023-02-11T16:08:00;55.67;;;22.52;;
74074;SDS011;62428;51.412;5.432;2023-02-11T16:10:58;55.90;;;21.83;;
74074;SDS011;62428;51.412;5.432;2023-02-11T16:13:27;58.72;;;21.42;;
74074;SDS011;62428;51.412;5.432;2023-02-11T16:16:14;59.20;;;21.52;;
74074;SDS011;62428;51.412;5.432;2023-02-11T16:18:44;61.05;;;22.63;;
74074;SDS011;62428;51.412;5.432;2023-02-11T16:21:23;57.45;;;22.05;;
74074;SDS011;62428;51.412;5.432;2023-02-11T16:23:56;59.43;;;23.13;;
74074;SDS011;62428;51.412;5.432;2023-02-11T16:26:37;60.00;;;22.98;;
74074;SDS011;62428;51.412;5.432;2023-02-11T16:29:10;53.22;;;22.10;;
74074;SDS011;62428;51.412;5.432;2023-02-11T16:31:40;58.95;;;24.08;;
74074;SDS011;62428;51.412;5.432;2023-02-11T16:34:20;55.70;;;22.58;;
74074;SDS011;62428;51.412;5.432;2023-02-11T16:36:47;62.60;;;23.00;;
74074;SDS011;62428;51.412;5.432;2023-02-11T16:39:13;61.80;;;23.48;;
74074;SDS011;62428;51.412;5.432;2023-02-11T16:41:40;59.58;;;23.77;;
74074;SDS011;62428;51.412;5.432;2023-02-11T16:44:06;54.10;;;22.53;;
74074;SDS011;62428;51.412;5.432;2023-02-11T16:46:31;54.40;;;22.33;;
74074;SDS011;62428;51.412;5.432;2023-02-11T16:48:57;56.70;;;21.65;;
74074;SDS011;62428;51.412;5.432;2023-02-11T16:51:32;59.95;;;22.77;;
74074;SDS011;62428;51.412;5.432;2023-02-11T16:53:57;59.93;;;22.47;;
74074;SDS011;62428;51.412;5.432;2023-02-11T16:56:22;57.53;;;21.10;;
74074;SDS011;62428;51.412;5.432;2023-02-11T16:58:48;52.80;;;21.50;;
74074;SDS011;62428;51.412;5.432;2023-02-11T17:01:13;59.87;;;23.10;;
74074;SDS011;62428;51.412;5.432;2023-02-11T17:03:39;55.80;;;21.93;;
74074;SDS011;62428;51.412;5.432;2023-02-11T17:06:08;66.60;;;23.27;;
74074;SDS011;62428;51.412;5.432;2023-02-11T17:08:35;56.20;;;23.35;;
74074;SDS011;62428;51.412;5.432;2023-02-11T17:11:01;56.13;;;21.43;;
74074;SDS011;62428;51.412;5.432;2023-02-11T17:13:27;56.33;;;22.33;;
74074;SDS011;62428;51.412;5.432;2023-02-11T17:15:52;58.67;;;23.43;;
74074;SDS011;62428;51.412;5.432;2023-02-11T17:18:18;57.93;;;22.00;;
74074;SDS011;62428;51.412;5.432;2023-02-11T17:20:45;56.85;;;21.95;;
74074;SDS011;62428;51.412;5.432;2023-02-11T17:23:11;55.90;;;21.47;;
74074;SDS011;62428;51.412;5.432;2023-02-11T17:25:36;57.55;;;22.50;;
74074;SDS011;62428;51.412;5.432;2023-02-11T17:28:06;50.58;;;20.58;;
74074;SDS011;62428;51.412;5.432;2023-02-11T17:30:37;52.22;;;20.73;;
74074;SDS011;62428;51.412;5.432;2023-02-11T17:33:05;51.30;;;22.00;;
74074;SDS011;62428;51.412;5.432;2023-02-11T17:35:30;50.60;;;20.20;;
74074;SDS011;62428;51.412;5.432;2023-02-11T17:37:55;60.73;;;21.97;;
74074;SDS011;62428;51.412;5.432;2023-02-11T17:40:22;54.38;;;21.35;;
74074;SDS011;62428;51.412;5.432;2023-02-11T17:42:47;51.17;;;20.87;;
74074;SDS011;62428;51.412;5.432;2023-02-11T17:45:14;58.03;;;20.92;;
74074;SDS011;62428;51.412;5.432;2023-02-11T17:47:39;51.33;;;19.63;;
74074;SDS011;62428;51.412;5.432;2023-02-11T17:50:05;49.20;;;19.97;;
74074;SDS011;62428;51.412;5.432;2023-02-11T17:52:31;50.47;;;19.77;;
74074;SDS011;62428;51.412;5.432;2023-02-11T17:54:56;51.70;;;20.63;;
74074;SDS011;62428;51.412;5.432;2023-02-11T17:57:22;53.57;;;20.50;;
74074;SDS011;62428;51.412;5.432;2023-02-11T17:59:47;58.40;;;21.63;;
74074;SDS011;62428;51.412;5.432;2023-02-11T18:02:12;55.83;;;20.23;;
74074;SDS011;62428;51.412;5.432;2023-02-11T18:04:38;63.53;;;21.40;;